createdAt,value
2023-10-31T00:00:51.730Z,12.90
2023-10-31T00:03:18.695Z,12.90
2023-10-31T00:05:45.602Z,12.80
2023-10-31T00:08:12.320Z,12.90
2023-10-31T00:10:38.988Z,12.80
2023-10-31T00:13:05.699Z,12.80
2023-10-31T00:15:32.373Z,12.80
2023-10-31T00:17:59.159Z,12.80
2023-10-31T00:20:25.752Z,12.70
2023-10-31T00:22:52.412Z,12.80
2023-10-31T00:25:19.241Z,12.70
2023-10-31T00:27:45.885Z,12.70
2023-10-31T00:30:12.816Z,12.70
2023-10-31T00:32:39.464Z,12.60
2023-10-31T00:35:06.557Z,12.60
2023-10-31T00:37:33.306Z,12.60
2023-10-31T00:39:59.942Z,12.60
2023-10-31T00:42:26.587Z,12.60
2023-10-31T00:44:53.223Z,12.60
2023-10-31T00:47:19.992Z,12.60
2023-10-31T00:49:46.672Z,12.50
2023-10-31T00:52:13.290Z,12.50
2023-10-31T00:54:39.913Z,12.40
2023-10-31T00:57:06.529Z,12.40
2023-10-31T00:59:33.128Z,12.40
2023-10-31T01:01:59.791Z,12.40
2023-10-31T01:04:27.091Z,12.30
2023-10-31T01:06:53.793Z,12.30
2023-10-31T01:09:20.435Z,12.40
2023-10-31T01:11:47.102Z,12.30
2023-10-31T01:14:13.773Z,12.30
2023-10-31T01:16:43.288Z,12.30
2023-10-31T01:19:09.925Z,12.20
2023-10-31T01:21:36.533Z,12.20
2023-10-31T01:24:03.146Z,12.20
2023-10-31T01:26:29.819Z,12.20
2023-10-31T01:28:56.696Z,12.20
2023-10-31T01:31:23.415Z,12.10
2023-10-31T01:33:50.161Z,12.10
2023-10-31T01:36:17.382Z,12.00
2023-10-31T01:38:44.038Z,12.00
2023-10-31T01:41:10.715Z,12.00
2023-10-31T01:43:38.425Z,12.00
2023-10-31T01:46:06.176Z,11.90
2023-10-31T01:48:35.098Z,11.80
2023-10-31T01:51:05.450Z,11.80
2023-10-31T01:53:36.389Z,11.80
2023-10-31T01:56:04.493Z,11.70
2023-10-31T01:58:34.264Z,11.60
2023-10-31T02:01:01.788Z,11.60
2023-10-31T02:03:29.254Z,11.60
2023-10-31T02:05:56.241Z,11.50
2023-10-31T02:08:23.071Z,11.60
2023-10-31T02:10:49.795Z,11.60
2023-10-31T02:13:17.991Z,11.50
2023-10-31T02:15:45.700Z,11.50
2023-10-31T02:18:12.773Z,11.50
2023-10-31T02:20:39.466Z,11.50
2023-10-31T02:23:06.330Z,11.50
2023-10-31T02:25:33.360Z,11.60
2023-10-31T02:28:00.259Z,11.50
2023-10-31T02:30:27.650Z,11.50
2023-10-31T02:32:54.632Z,11.60
2023-10-31T02:35:21.513Z,11.60
2023-10-31T02:37:48.453Z,11.60
2023-10-31T02:40:15.215Z,11.60
2023-10-31T02:42:41.862Z,11.60
2023-10-31T02:45:09.030Z,11.60
2023-10-31T02:47:35.775Z,11.70
2023-10-31T02:50:02.606Z,11.70
2023-10-31T02:52:29.259Z,11.60
2023-10-31T02:54:55.865Z,11.60
2023-10-31T02:57:22.530Z,11.50
2023-10-31T02:59:49.206Z,11.50
2023-10-31T03:02:16.101Z,11.40
2023-10-31T03:04:42.784Z,11.40
2023-10-31T03:07:09.540Z,11.50
2023-10-31T03:09:36.280Z,11.40
2023-10-31T03:12:02.974Z,11.40
2023-10-31T03:14:29.578Z,11.40
2023-10-31T03:16:56.384Z,11.30
2023-10-31T03:19:23.327Z,11.30
2023-10-31T03:21:49.913Z,11.20
2023-10-31T03:24:16.548Z,11.20
2023-10-31T03:26:43.219Z,11.20
2023-10-31T03:29:09.825Z,11.20
2023-10-31T03:31:36.503Z,11.10
2023-10-31T03:34:03.163Z,11.10
2023-10-31T03:36:29.917Z,11.20
2023-10-31T03:38:56.580Z,11.20
2023-10-31T03:41:23.236Z,11.10
2023-10-31T03:43:49.899Z,11.10
2023-10-31T03:46:16.628Z,11.10
2023-10-31T03:48:43.393Z,11.10
2023-10-31T03:51:10.056Z,11.10
2023-10-31T03:53:36.681Z,11.10
2023-10-31T03:56:03.595Z,11.10
2023-10-31T03:58:30.366Z,11.10
2023-10-31T04:00:57.063Z,11.10
2023-10-31T04:03:23.876Z,11.10
2023-10-31T04:05:50.593Z,11.10
2023-10-31T04:08:17.307Z,11.10
2023-10-31T04:10:44.024Z,11.10
2023-10-31T04:13:10.865Z,11.00
2023-10-31T04:15:37.904Z,11.00
2023-10-31T04:18:04.882Z,11.00
2023-10-31T04:20:31.861Z,11.00
2023-10-31T04:22:58.575Z,10.90
2023-10-31T04:25:25.683Z,10.90
2023-10-31T04:27:52.280Z,10.80
2023-10-31T04:30:18.996Z,10.80
2023-10-31T04:32:46.651Z,10.80
2023-10-31T04:35:13.532Z,10.80
2023-10-31T04:37:40.279Z,10.80
2023-10-31T04:40:07.509Z,10.70
2023-10-31T04:42:37.075Z,10.80
2023-10-31T04:45:03.954Z,10.80
2023-10-31T04:47:30.783Z,10.80
2023-10-31T04:49:57.488Z,10.90
2023-10-31T04:52:26.926Z,10.90
2023-10-31T04:54:53.528Z,11.00
2023-10-31T04:57:20.215Z,11.00
2023-10-31T04:59:46.804Z,11.00
2023-10-31T05:02:13.527Z,11.00
2023-10-31T05:04:41.200Z,11.00
2023-10-31T05:07:08.033Z,11.10
2023-10-31T05:09:34.702Z,11.10
2023-10-31T05:12:01.395Z,11.10
2023-10-31T05:14:28.068Z,11.10
2023-10-31T05:16:54.832Z,11.10
2023-10-31T05:19:21.468Z,11.20
2023-10-31T05:21:48.283Z,11.20
2023-10-31T05:24:14.960Z,11.20
2023-10-31T05:26:43.886Z,11.20
2023-10-31T05:29:11.561Z,11.20
2023-10-31T05:31:38.222Z,11.20
2023-10-31T05:34:04.990Z,11.20
2023-10-31T05:36:31.973Z,11.20
2023-10-31T05:38:58.581Z,11.20
2023-10-31T05:41:25.268Z,11.20
2023-10-31T05:43:52.019Z,11.20
2023-10-31T05:46:19.104Z,11.20
2023-10-31T05:48:47.026Z,11.20
2023-10-31T05:51:20.418Z,11.20
2023-10-31T05:53:48.764Z,11.20
2023-10-31T05:56:17.096Z,11.20
2023-10-31T05:58:44.013Z,11.30
2023-10-31T06:01:10.912Z,11.20
2023-10-31T06:03:38.615Z,11.30
2023-10-31T06:06:06.134Z,11.30
2023-10-31T06:08:32.826Z,11.30
2023-10-31T06:10:59.971Z,11.30
2023-10-31T06:13:27.975Z,11.30
2023-10-31T06:15:58.334Z,11.30
2023-10-31T06:18:27.741Z,11.30
2023-10-31T06:20:54.329Z,11.30
2023-10-31T06:23:20.932Z,11.30
2023-10-31T06:25:47.662Z,11.30
2023-10-31T06:28:14.305Z,11.40
2023-10-31T06:30:41.070Z,11.30
2023-10-31T06:33:09.622Z,11.30
2023-10-31T06:35:36.336Z,11.30
2023-10-31T06:38:03.618Z,11.30
2023-10-31T06:40:30.297Z,11.30
2023-10-31T06:42:56.870Z,11.40
2023-10-31T06:45:23.617Z,11.40
2023-10-31T06:47:50.276Z,11.40
2023-10-31T06:50:20.237Z,11.40
2023-10-31T06:52:47.605Z,11.40
2023-10-31T06:55:14.406Z,11.40
2023-10-31T06:57:41.156Z,11.40
2023-10-31T07:00:10.118Z,11.30
2023-10-31T07:02:37.150Z,11.30
2023-10-31T07:05:07.252Z,11.30
2023-10-31T07:07:34.048Z,11.30
2023-10-31T07:10:00.657Z,11.40
2023-10-31T07:12:27.342Z,11.30
2023-10-31T07:14:54.154Z,11.40
2023-10-31T07:17:20.903Z,11.30
2023-10-31T07:19:47.660Z,11.30
2023-10-31T07:22:14.320Z,11.40
2023-10-31T07:24:41.203Z,11.40
2023-10-31T07:27:07.842Z,11.40
2023-10-31T07:29:34.570Z,11.40
2023-10-31T07:32:01.592Z,11.30
2023-10-31T07:34:30.478Z,11.30
2023-10-31T07:36:57.772Z,11.40
2023-10-31T07:39:24.397Z,11.40
2023-10-31T07:41:50.977Z,11.30
2023-10-31T07:44:17.716Z,11.40
2023-10-31T07:46:44.402Z,11.40
2023-10-31T07:49:11.160Z,11.40
2023-10-31T07:51:37.833Z,11.40
2023-10-31T07:54:04.613Z,11.40
2023-10-31T07:56:31.241Z,11.40
2023-10-31T07:58:58.398Z,11.40
2023-10-31T08:01:25.414Z,11.40
2023-10-31T08:03:52.180Z,11.40
2023-10-31T08:06:18.915Z,11.50
2023-10-31T08:08:45.572Z,11.50
2023-10-31T08:11:12.705Z,11.50
2023-10-31T08:13:40.015Z,11.50
2023-10-31T08:16:08.501Z,11.50
2023-10-31T08:18:35.407Z,11.50
2023-10-31T08:21:02.452Z,11.50
2023-10-31T08:23:30.582Z,11.60
2023-10-31T08:25:57.800Z,11.60
2023-10-31T08:28:24.433Z,11.70
2023-10-31T08:30:51.235Z,11.70
2023-10-31T08:33:18.057Z,11.80
2023-10-31T08:35:44.802Z,11.80
2023-10-31T08:38:21.064Z,11.90
2023-10-31T08:40:51.171Z,12.00
2023-10-31T08:43:18.005Z,12.10
2023-10-31T08:45:44.699Z,12.20
2023-10-31T08:48:11.432Z,12.20
2023-10-31T08:50:38.301Z,12.20
2023-10-31T08:53:05.789Z,12.30
2023-10-31T08:55:32.517Z,12.30
2023-10-31T08:57:59.145Z,12.30
2023-10-31T09:00:25.875Z,12.40
2023-10-31T09:02:52.853Z,12.40
2023-10-31T09:05:19.687Z,12.60
2023-10-31T09:07:47.371Z,12.50
2023-10-31T09:10:14.261Z,12.60
2023-10-31T09:12:40.880Z,12.50
2023-10-31T09:15:08.034Z,12.50
2023-10-31T09:17:34.730Z,12.50
2023-10-31T09:20:01.588Z,12.40
2023-10-31T09:22:28.232Z,12.50
2023-10-31T09:24:54.968Z,12.50
2023-10-31T09:27:21.605Z,12.50
2023-10-31T09:29:48.421Z,12.50
2023-10-31T09:32:16.919Z,12.50
2023-10-31T09:34:43.570Z,12.60
2023-10-31T09:37:10.207Z,12.70
2023-10-31T09:39:36.895Z,12.80
2023-10-31T09:42:03.891Z,12.70
2023-10-31T09:44:30.812Z,12.90
2023-10-31T09:46:58.159Z,12.90
2023-10-31T09:49:25.374Z,12.90
2023-10-31T09:51:52.341Z,12.90
2023-10-31T09:54:19.028Z,13.00
2023-10-31T09:56:45.737Z,13.00
2023-10-31T09:59:14.704Z,12.90
2023-10-31T10:01:41.928Z,13.00
2023-10-31T10:04:08.837Z,13.00
2023-10-31T10:06:35.577Z,13.00
2023-10-31T10:09:06.367Z,12.90
2023-10-31T10:11:34.666Z,13.00
2023-10-31T10:14:01.319Z,13.00
2023-10-31T10:16:34.460Z,13.00
2023-10-31T10:19:20.915Z,13.10
2023-10-31T10:21:59.258Z,13.10
2023-10-31T10:24:26.107Z,13.20
2023-10-31T10:26:53.349Z,13.10
2023-10-31T10:29:20.146Z,13.20
2023-10-31T10:31:46.958Z,13.20
2023-10-31T10:34:17.735Z,13.20
2023-10-31T10:36:52.744Z,13.30
2023-10-31T10:39:24.032Z,13.20
2023-10-31T10:41:59.253Z,13.30
2023-10-31T10:44:33.822Z,13.30
2023-10-31T10:47:07.318Z,13.30
2023-10-31T10:49:39.635Z,13.40
2023-10-31T10:52:17.745Z,13.30
2023-10-31T10:54:47.529Z,13.30
2023-10-31T10:57:20.063Z,13.30
2023-10-31T10:59:53.750Z,13.20
2023-10-31T11:02:21.141Z,13.20
2023-10-31T11:04:48.988Z,13.20
2023-10-31T11:07:17.310Z,13.20
2023-10-31T11:09:45.125Z,13.20
2023-10-31T11:12:12.777Z,13.20
2023-10-31T11:14:40.253Z,13.40
2023-10-31T11:17:15.732Z,13.90
2023-10-31T11:19:42.912Z,13.80
2023-10-31T11:22:11.395Z,13.70
2023-10-31T11:24:39.071Z,13.60
2023-10-31T11:27:07.781Z,13.70
2023-10-31T11:29:34.659Z,13.70
2023-10-31T11:32:01.489Z,13.80
2023-10-31T11:34:31.006Z,13.70
2023-10-31T11:37:20.926Z,13.70
2023-10-31T11:40:19.470Z,13.80
2023-10-31T11:42:51.622Z,14.00
2023-10-31T11:45:45.292Z,14.00
2023-10-31T11:48:12.418Z,14.00
2023-10-31T11:50:39.484Z,13.90
2023-10-31T11:53:14.331Z,13.80
2023-10-31T11:55:43.388Z,13.80
2023-10-31T11:58:27.971Z,13.80
2023-10-31T12:01:03.214Z,13.80
2023-10-31T12:03:48.471Z,13.80
2023-10-31T12:06:16.052Z,13.90
2023-10-31T12:08:44.635Z,13.90
2023-10-31T12:11:13.634Z,14.00
2023-10-31T12:13:55.821Z,14.00
2023-10-31T12:16:27.346Z,14.00
2023-10-31T12:19:07.379Z,14.00
2023-10-31T12:21:48.935Z,14.00
2023-10-31T12:24:17.281Z,14.00
2023-10-31T12:26:45.802Z,14.10
2023-10-31T12:29:16.685Z,14.10
2023-10-31T12:31:46.508Z,14.10
2023-10-31T12:34:13.840Z,14.10
2023-10-31T12:36:41.869Z,14.20
2023-10-31T12:39:12.692Z,14.10
2023-10-31T12:41:41.260Z,14.10
2023-10-31T12:44:11.652Z,14.00
2023-10-31T12:46:42.445Z,14.00
2023-10-31T12:49:14.570Z,13.90
2023-10-31T12:52:02.649Z,13.90
2023-10-31T12:54:36.990Z,13.90
2023-10-31T12:57:05.824Z,13.90
2023-10-31T12:59:37.585Z,14.00
2023-10-31T13:02:04.499Z,14.00
2023-10-31T13:04:33.011Z,14.00
2023-10-31T13:07:01.339Z,14.00
2023-10-31T13:09:36.428Z,14.10
2023-10-31T13:12:04.218Z,14.20
2023-10-31T13:14:31.570Z,14.30
2023-10-31T13:16:58.649Z,14.40
2023-10-31T13:19:25.367Z,14.50
2023-10-31T13:21:52.291Z,14.50
2023-10-31T13:24:20.233Z,14.50
2023-10-31T13:26:52.207Z,14.50
2023-10-31T13:29:22.700Z,14.60
2023-10-31T13:31:49.613Z,14.60
2023-10-31T13:34:16.474Z,14.50
2023-10-31T13:36:44.105Z,14.30
2023-10-31T13:39:11.197Z,14.30
2023-10-31T13:41:37.785Z,14.20
2023-10-31T13:44:05.131Z,14.20
2023-10-31T13:46:31.926Z,14.10
2023-10-31T13:48:58.619Z,14.20
2023-10-31T13:51:25.342Z,14.10
2023-10-31T13:53:51.995Z,14.10
2023-10-31T13:56:18.666Z,14.10
2023-10-31T13:58:45.439Z,14.00
2023-10-31T14:01:12.360Z,14.10
2023-10-31T14:03:39.326Z,14.50
2023-10-31T14:06:06.571Z,15.00
2023-10-31T14:08:33.774Z,15.20
2023-10-31T14:11:00.517Z,15.00
2023-10-31T14:13:27.186Z,15.10
2023-10-31T14:15:54.112Z,15.00
2023-10-31T14:18:20.753Z,15.40
2023-10-31T14:20:47.353Z,16.30
2023-10-31T14:23:14.065Z,16.10
2023-10-31T14:25:41.964Z,16.00
2023-10-31T14:28:09.128Z,15.50
2023-10-31T14:30:35.824Z,15.50
2023-10-31T14:33:02.564Z,15.40
2023-10-31T14:35:29.275Z,16.20
2023-10-31T14:37:55.992Z,16.40
2023-10-31T14:40:22.674Z,16.50
2023-10-31T14:42:50.612Z,16.40
2023-10-31T14:45:17.368Z,16.30
2023-10-31T14:47:44.115Z,16.00
2023-10-31T14:50:10.923Z,15.70
2023-10-31T14:52:37.557Z,15.50
2023-10-31T14:55:04.642Z,15.40
2023-10-31T14:57:31.323Z,15.30
2023-10-31T14:59:58.246Z,15.20
2023-10-31T15:02:24.973Z,15.20
2023-10-31T15:04:51.695Z,14.90
2023-10-31T15:07:19.631Z,14.70
2023-10-31T15:09:46.883Z,14.50
2023-10-31T15:12:13.976Z,14.30
2023-10-31T15:14:40.742Z,14.20
2023-10-31T15:17:07.503Z,14.00
2023-10-31T15:19:34.176Z,14.00
2023-10-31T15:22:01.000Z,14.00
2023-10-31T15:24:31.180Z,13.90
2023-10-31T15:26:58.346Z,13.80
2023-10-31T15:29:25.157Z,13.80
2023-10-31T15:31:55.546Z,13.80
2023-10-31T15:34:22.610Z,13.70
2023-10-31T15:36:49.719Z,13.60
2023-10-31T15:39:16.788Z,13.50
2023-10-31T15:41:43.667Z,13.40
2023-10-31T15:44:10.591Z,13.30
2023-10-31T15:46:38.363Z,13.10
2023-10-31T15:49:05.724Z,13.10
2023-10-31T15:51:33.255Z,13.00
2023-10-31T15:54:00.038Z,12.90
2023-10-31T15:56:26.756Z,12.80
2023-10-31T15:58:53.408Z,12.70
2023-10-31T16:01:20.059Z,12.60
2023-10-31T16:03:46.790Z,12.50
2023-10-31T16:06:13.495Z,12.50
2023-10-31T16:08:43.701Z,12.50
2023-10-31T16:11:10.677Z,12.40
2023-10-31T16:13:38.129Z,12.40
2023-10-31T16:16:05.396Z,12.30
2023-10-31T16:18:32.222Z,12.40
2023-10-31T16:20:58.894Z,12.50
2023-10-31T16:23:26.201Z,12.60
2023-10-31T16:25:53.056Z,12.70
2023-10-31T16:28:19.843Z,12.70
2023-10-31T16:30:46.451Z,12.90
2023-10-31T16:33:13.194Z,12.80
2023-10-31T16:35:39.921Z,12.80
2023-10-31T16:38:06.626Z,12.90
2023-10-31T16:40:34.389Z,12.90
2023-10-31T16:43:01.001Z,12.90
2023-10-31T16:45:27.675Z,12.90
2023-10-31T16:47:54.482Z,13.00
2023-10-31T16:50:21.412Z,12.90
2023-10-31T16:52:48.163Z,13.00
2023-10-31T16:55:15.006Z,13.00
2023-10-31T16:57:41.708Z,13.00
2023-10-31T17:00:08.852Z,12.90
2023-10-31T17:02:35.682Z,13.00
2023-10-31T17:05:02.438Z,13.00
2023-10-31T17:07:29.036Z,13.00
2023-10-31T17:09:55.712Z,13.00
2023-10-31T17:12:22.648Z,13.00
2023-10-31T17:14:49.452Z,13.00
2023-10-31T17:17:16.604Z,13.00
2023-10-31T17:19:43.252Z,13.10
2023-10-31T17:22:09.953Z,13.10
2023-10-31T17:24:36.592Z,13.00
2023-10-31T17:27:03.522Z,13.10
2023-10-31T17:29:30.227Z,13.10
2023-10-31T17:31:57.565Z,13.00
2023-10-31T17:34:26.901Z,13.00
2023-10-31T17:36:53.564Z,12.90
2023-10-31T17:39:20.236Z,12.90
2023-10-31T17:41:46.937Z,12.90
2023-10-31T17:44:13.754Z,12.80
2023-10-31T17:46:40.362Z,12.80
2023-10-31T17:49:08.070Z,12.70
2023-10-31T17:51:43.056Z,12.70
2023-10-31T17:54:09.927Z,12.70
2023-10-31T17:56:39.563Z,12.70
2023-10-31T17:59:06.283Z,12.70
2023-10-31T18:01:33.070Z,12.70
2023-10-31T18:04:00.808Z,12.70
2023-10-31T18:06:27.514Z,12.70
2023-10-31T18:08:55.506Z,12.70
2023-10-31T18:11:22.282Z,12.80
2023-10-31T18:13:49.063Z,12.80
2023-10-31T18:16:16.332Z,12.80
2023-10-31T18:18:48.381Z,12.80
2023-10-31T18:21:15.366Z,12.80
2023-10-31T18:23:42.040Z,12.70
2023-10-31T18:26:08.762Z,12.70
2023-10-31T18:28:35.435Z,12.70
2023-10-31T18:31:02.493Z,12.70
2023-10-31T18:33:29.411Z,12.70
2023-10-31T18:35:56.047Z,12.70
2023-10-31T18:38:25.825Z,12.60
2023-10-31T18:40:52.485Z,12.60
2023-10-31T18:43:19.266Z,12.50
2023-10-31T18:45:45.991Z,12.50
2023-10-31T18:48:12.896Z,12.40
2023-10-31T18:50:39.806Z,12.40
2023-10-31T18:53:07.418Z,12.40
2023-10-31T18:55:34.096Z,12.40
2023-10-31T18:58:00.762Z,12.30
2023-10-31T19:00:27.400Z,12.30
2023-10-31T19:02:54.184Z,12.30
2023-10-31T19:05:21.280Z,12.30
2023-10-31T19:07:48.695Z,12.30
2023-10-31T19:10:15.396Z,12.30
2023-10-31T19:12:42.735Z,12.30
2023-10-31T19:15:09.716Z,12.30
2023-10-31T19:17:36.637Z,12.30
2023-10-31T19:20:03.647Z,12.30
2023-10-31T19:22:30.547Z,12.30
2023-10-31T19:24:57.190Z,12.30
2023-10-31T19:27:24.016Z,12.30
2023-10-31T19:29:51.419Z,12.30
2023-10-31T19:32:18.384Z,12.30
2023-10-31T19:34:45.194Z,12.30
2023-10-31T19:37:11.964Z,12.30
2023-10-31T19:39:38.634Z,12.30
2023-10-31T19:42:06.079Z,12.30
2023-10-31T19:44:32.789Z,12.30
2023-10-31T19:46:59.756Z,12.30
2023-10-31T19:49:26.370Z,12.30
2023-10-31T19:51:53.662Z,12.40
2023-10-31T19:54:20.784Z,12.40
2023-10-31T19:56:48.440Z,12.40
2023-10-31T19:59:15.680Z,12.30
2023-10-31T20:01:42.563Z,12.30
2023-10-31T20:04:09.778Z,12.30
2023-10-31T20:06:37.482Z,12.30
2023-10-31T20:09:04.616Z,12.40
2023-10-31T20:11:31.382Z,12.40
2023-10-31T20:13:57.986Z,12.40
2023-10-31T20:16:24.793Z,12.40
2023-10-31T20:18:51.503Z,12.40
2023-10-31T20:21:18.415Z,12.40
2023-10-31T20:23:45.209Z,12.30
2023-10-31T20:26:11.915Z,12.40
2023-10-31T20:28:40.499Z,12.40
2023-10-31T20:31:07.704Z,12.40
2023-10-31T20:33:34.450Z,12.40
2023-10-31T20:36:01.617Z,12.40
2023-10-31T20:38:28.385Z,12.40
2023-10-31T20:40:55.012Z,12.40
2023-10-31T20:43:21.656Z,12.50
2023-10-31T20:45:48.312Z,12.50
2023-10-31T20:48:15.012Z,12.50
2023-10-31T20:50:41.845Z,12.40
2023-10-31T20:53:08.535Z,12.40
2023-10-31T20:55:35.151Z,12.30
2023-10-31T20:58:01.757Z,12.30
2023-10-31T21:00:28.375Z,12.30
2023-10-31T21:02:56.030Z,12.30
2023-10-31T21:05:23.586Z,12.30
2023-10-31T21:07:50.361Z,12.30
2023-10-31T21:10:17.058Z,12.20
2023-10-31T21:12:43.713Z,12.10
2023-10-31T21:15:11.053Z,12.10
2023-10-31T21:17:38.462Z,12.10
2023-10-31T21:20:06.689Z,12.00
2023-10-31T21:22:36.616Z,12.00
2023-10-31T21:25:04.695Z,11.90
2023-10-31T21:27:31.437Z,11.90
2023-10-31T21:29:58.779Z,11.90
2023-10-31T21:32:25.973Z,11.80
2023-10-31T21:34:52.714Z,11.90
2023-10-31T21:37:19.354Z,11.90
2023-10-31T21:39:46.013Z,11.90
2023-10-31T21:42:13.862Z,11.90
2023-10-31T21:44:41.128Z,11.90
2023-10-31T21:47:07.965Z,11.90
2023-10-31T21:49:34.565Z,11.90
2023-10-31T21:52:01.198Z,11.90
2023-10-31T21:54:27.834Z,11.90
2023-10-31T21:56:54.460Z,11.90
2023-10-31T21:59:21.521Z,11.90
2023-10-31T22:01:48.206Z,11.90
2023-10-31T22:04:15.524Z,11.90
2023-10-31T22:06:42.211Z,11.90
2023-10-31T22:09:09.441Z,11.90
2023-10-31T22:11:36.178Z,11.90
2023-10-31T22:14:03.242Z,11.90
2023-10-31T22:16:32.824Z,11.90
2023-10-31T22:19:00.890Z,11.90
2023-10-31T22:21:27.875Z,11.90
2023-10-31T22:23:54.432Z,12.00
2023-10-31T22:26:21.890Z,12.10
2023-10-31T22:28:51.334Z,12.10
2023-10-31T22:31:18.136Z,12.10
2023-10-31T22:33:45.528Z,12.10
2023-10-31T22:36:12.901Z,12.10
2023-10-31T22:38:39.904Z,12.10
2023-10-31T22:41:07.110Z,12.10
2023-10-31T22:43:34.324Z,12.20
2023-10-31T22:46:00.975Z,12.20
2023-10-31T22:48:27.805Z,12.10
2023-10-31T22:50:55.474Z,12.10
2023-10-31T22:53:22.192Z,12.10
2023-10-31T22:55:48.768Z,12.10
2023-10-31T22:58:15.391Z,12.00
2023-10-31T23:00:42.476Z,12.00
2023-10-31T23:03:09.856Z,11.90
2023-10-31T23:05:37.050Z,11.90
2023-10-31T23:08:04.439Z,11.90
2023-10-31T23:10:31.271Z,11.80
2023-10-31T23:12:58.044Z,11.80
2023-10-31T23:15:24.885Z,11.70
2023-10-31T23:17:53.968Z,11.80
2023-10-31T23:20:21.308Z,11.70
2023-10-31T23:22:52.086Z,11.70
2023-10-31T23:25:19.450Z,11.70
2023-10-31T23:27:48.098Z,11.60
2023-10-31T23:30:15.690Z,11.70
2023-10-31T23:32:43.653Z,11.60
2023-10-31T23:35:10.824Z,11.60
2023-10-31T23:37:37.578Z,11.50
2023-10-31T23:40:05.010Z,11.50
2023-10-31T23:42:31.743Z,11.50
2023-10-31T23:44:58.584Z,11.50
2023-10-31T23:47:25.271Z,11.50
2023-10-31T23:49:51.909Z,11.50
2023-10-31T23:52:18.517Z,11.50
2023-10-31T23:54:45.374Z,11.50
2023-10-31T23:57:12.065Z,11.60
2023-10-31T23:59:38.823Z,11.60
